地図

経路データ

SID SEASON NUMBER BASIN SUBBASIN NAME ISO_TIME NATURE LAT LON WMO_WIND WMO_PRES WMO_AGENCY TRACK_TYPE DIST2LAND LANDFALL IFLAG USA_AGENCY USA_ATCF_ID USA_LAT USA_LON USA_RECORD USA_STATUS USA_WIND USA_PRES USA_SSHS USA_R34_NE USA_R34_SE USA_R34_SW USA_R34_NW USA_R50_NE USA_R50_SE USA_R50_SW USA_R50_NW USA_R64_NE USA_R64_SE USA_R64_SW USA_R64_NW USA_POCI USA_ROCI USA_RMW USA_EYE TOKYO_LAT TOKYO_LON TOKYO_GRADE TOKYO_WIND TOKYO_PRES TOKYO_R50_DIR TOKYO_R50_LONG TOKYO_R50_SHORT TOKYO_R30_DIR TOKYO_R30_LONG TOKYO_R30_SHORT TOKYO_LAND CMA_LAT CMA_LON CMA_CAT CMA_WIND CMA_PRES HKO_LAT HKO_LON HKO_CAT HKO_WIND HKO_PRES NEWDELHI_LAT NEWDELHI_LON NEWDELHI_GRADE NEWDELHI_WIND NEWDELHI_PRES NEWDELHI_CI NEWDELHI_DP NEWDELHI_POCI REUNION_LAT REUNION_LON REUNION_TYPE REUNION_WIND REUNION_PRES REUNION_TNUM REUNION_CI REUNION_RMW REUNION_R34_NE REUNION_R34_SE REUNION_R34_SW REUNION_R34_NW REUNION_R50_NE REUNION_R50_SE REUNION_R50_SW REUNION_R50_NW REUNION_R64_NE REUNION_R64_SE REUNION_R64_SW REUNION_R64_NW BOM_LAT BOM_LON BOM_TYPE BOM_WIND BOM_PRES BOM_TNUM BOM_CI BOM_RMW BOM_R34_NE BOM_R34_SE BOM_R34_SW BOM_R34_NW BOM_R50_NE BOM_R50_SE BOM_R50_SW BOM_R50_NW BOM_R64_NE BOM_R64_SE BOM_R64_SW BOM_R64_NW BOM_ROCI BOM_POCI BOM_EYE BOM_POS_METHOD BOM_PRES_METHOD NADI_LAT NADI_LON NADI_CAT NADI_WIND NADI_PRES WELLINGTON_LAT WELLINGTON_LON WELLINGTON_WIND WELLINGTON_PRES DS824_LAT DS824_LON DS824_STAGE DS824_WIND DS824_PRES TD9636_LAT TD9636_LON TD9636_STAGE TD9636_WIND TD9636_PRES TD9635_LAT TD9635_LON TD9635_WIND TD9635_PRES TD9635_ROCI NEUMANN_LAT NEUMANN_LON NEUMANN_CLASS NEUMANN_WIND NEUMANN_PRES MLC_LAT MLC_LON MLC_CLASS MLC_WIND MLC_PRES USA_GUST BOM_GUST BOM_GUST_PER REUNION_GUST REUNION_GUST_PER USA_SEAHGT USA_SEARAD_NE USA_SEARAD_SE USA_SEARAD_SW USA_SEARAD_NW STORM_SPEED STORM_DIR
1880001S08060 1880 1 SI MM NOT_NAMED 1880-01-01 06:00:00 NR -7.50000 59.8000 reunion main 1246 1231 _____O________ -1 -7.50000 59.8000 99 9.90000 4 219
1880001S08060 1880 1 SI MM NOT_NAMED 1880-01-01 09:00:00 NR -7.64085 59.6860 main 1231 1210 _____P________ -1 -7.64085 59.6860 99 4 219
1880001S08060 1880 1 SI MM NOT_NAMED 1880-01-01 12:00:00 NR -7.78136 59.5721 main 1210 1195 _____P________ -1 -7.78136 59.5721 99 4 219
1880001S08060 1880 1 SI MM NOT_NAMED 1880-01-01 15:00:00 NR -7.92123 59.4585 main 1195 1174 _____P________ -1 -7.92123 59.4585 99 4 219
1880001S08060 1880 1 SI MM NOT_NAMED 1880-01-01 18:00:00 NR -8.06013 59.3453 main 1165 1150 _____P________ -1 -8.06013 59.3453 99 4 219
1880001S08060 1880 1 SI MM NOT_NAMED 1880-01-01 21:00:00 NR -8.19777 59.2327 main 1150 1135 _____P________ -1 -8.19777 59.2327 99 4 219
1880001S08060 1880 1 SI MM NOT_NAMED 1880-01-02 00:00:00 NR -8.33384 59.1208 main 1135 1114 _____P________ -1 -8.33384 59.1208 99 4 219
1880001S08060 1880 1 SI MM NOT_NAMED 1880-01-02 03:00:00 NR -8.46801 59.0099 main 1114 1100 _____P________ -1 -8.46801 59.0099 99 3 219
1880001S08060 1880 1 SI MM NOT_NAMED 1880-01-02 06:00:00 NR -8.60000 58.9000 reunion main 1100 1085 _____O________ -1 -8.60000 58.9000 99 9.90000 3 220
1880001S08060 1880 1 SI MM NOT_NAMED 1880-01-02 09:00:00 NR -8.72960 58.7912 main 1085 1065 _____P________ -1 -8.72960 58.7912 99 3 220
1880001S08060 1880 1 SI MM NOT_NAMED 1880-01-02 12:00:00 NR -8.85711 58.6830 main 1065 1050 _____P________ -1 -8.85711 58.6830 99 3 220
1880001S08060 1880 1 SI MM NOT_NAMED 1880-01-02 15:00:00 NR -8.98290 58.5744 main 1050 1035 _____P________ -1 -8.98290 58.5744 99 3 221
1880001S08060 1880 1 SI MM NOT_NAMED 1880-01-02 18:00:00 NR -9.10738 58.4648 main 1035 1020 _____P________ -1 -9.10738 58.4648 99 3 221
1880001S08060 1880 1 SI MM NOT_NAMED 1880-01-02 21:00:00 NR -9.23094 58.3533 main 1020 996 _____P________ -1 -9.23094 58.3533 99 3 222
1880001S08060 1880 1 SI MM NOT_NAMED 1880-01-03 00:00:00 NR -9.35397 58.2392 main 991 976 _____P________ -1 -9.35397 58.2392 99 3 223
1880001S08060 1880 1 SI MM NOT_NAMED 1880-01-03 03:00:00 NR -9.47686 58.1217 main 976 962 _____P________ -1 -9.47686 58.1217 99 3 224
1880001S08060 1880 1 SI MM NOT_NAMED 1880-01-03 06:00:00 NR -9.60000 58.0000 reunion main 962 947 _____O________ -1 -9.60000 58.0000 99 9.90000 4 225
1880001S08060 1880 1 SI MM NOT_NAMED 1880-01-03 09:00:00 NR -9.72500 57.8699 main 947 923 _____P________ -1 -9.72500 57.8699 99 4 226
1880001S08060 1880 1 SI MM NOT_NAMED 1880-01-03 12:00:00 NR -9.85001 57.7353 main 918 904 _____P________ -1 -9.85001 57.7353 99 4 227
1880001S08060 1880 1 SI MM NOT_NAMED 1880-01-03 15:00:00 NR -9.97501 57.5974 main 904 889 _____P________ -1 -9.97501 57.5974 99 4 228
1880001S08060 1880 1 SI MM NOT_NAMED 1880-01-03 18:00:00 NR -10.1000 57.4574 main 889 865 _____P________ -1 -10.1000 57.4574 99 4 228
1880001S08060 1880 1 SI MM NOT_NAMED 1880-01-03 21:00:00 NR -10.2250 57.3165 main 865 850 _____P________ -1 -10.2250 57.3165 99 4 228
1880001S08060 1880 1 SI MM NOT_NAMED 1880-01-04 00:00:00 NR -10.3500 57.1759 main 846 822 _____P________ -1 -10.3500 57.1759 99 4 228
1880001S08060 1880 1 SI MM NOT_NAMED 1880-01-04 03:00:00 NR -10.4750 57.0366 main 822 808 _____P________ -1 -10.4750 57.0366 99 4 227
1880001S08060 1880 1 SI MM NOT_NAMED 1880-01-04 06:00:00 NR -10.6000 56.9000 reunion main 808 794 _____O________ -1 -10.6000 56.9000 99 9.90000 4 226
1880001S08060 1880 1 SI MM NOT_NAMED 1880-01-04 09:00:00 NR -10.7269 56.7684 main 794 769 _____P________ -1 -10.7269 56.7684 99 4 225
1880001S08060 1880 1 SI MM NOT_NAMED 1880-01-04 12:00:00 NR -10.8540 56.6387 main 766 752 _____P________ -1 -10.8540 56.6387 99 4 225
1880001S08060 1880 1 SI MM NOT_NAMED 1880-01-04 15:00:00 NR -10.9810 56.5108 main 752 738 _____P________ -1 -10.9810 56.5108 99 4 225
1880001S08060 1880 1 SI MM NOT_NAMED 1880-01-04 18:00:00 NR -11.1074 56.3849 main 738 724 _____P________ -1 -11.1074 56.3849 99 4 224
1880001S08060 1880 1 SI MM NOT_NAMED 1880-01-04 21:00:00 NR -11.2329 56.2608 main 724 697 _____P________ -1 -11.2329 56.2608 99 3 224
1880001S08060 1880 1 SI MM NOT_NAMED 1880-01-05 00:00:00 NR -11.3571 56.1387 main 697 684 _____P________ -1 -11.3571 56.1387 99 3 224
1880001S08060 1880 1 SI MM NOT_NAMED 1880-01-05 03:00:00 NR -11.4796 56.0184 main 684 670 _____P________ -1 -11.4796 56.0184 99 3 224
1880001S08060 1880 1 SI MM NOT_NAMED 1880-01-05 06:00:00 NR -11.6000 55.9000 reunion main 670 657 _____O________ -1 -11.6000 55.9000 99 9.90000 3 224
1880001S08060 1880 1 SI MM NOT_NAMED 1880-01-05 09:00:00 NR -11.7132 55.7865 main 657 644 _____P________ -1 -11.7132 55.7865 99 3 225
1880001S08060 1880 1 SI MM NOT_NAMED 1880-01-05 12:00:00 NR -11.8239 55.6757 main 644 630 _____P________ -1 -11.8239 55.6757 99 3 225
1880001S08060 1880 1 SI MM NOT_NAMED 1880-01-05 15:00:00 NR -11.9332 55.5662 main 630 617 _____P________ -1 -11.9332 55.5662 99 3 224
1880001S08060 1880 1 SI MM NOT_NAMED 1880-01-05 18:00:00 NR -12.0423 55.4571 main 617 603 _____P________ -1 -12.0423 55.4571 99 3 224
1880001S08060 1880 1 SI MM NOT_NAMED 1880-01-05 21:00:00 NR -12.1524 55.3471 main 590 577 _____P________ -1 -12.1524 55.3471 99 3 224
1880001S08060 1880 1 SI MM NOT_NAMED 1880-01-06 00:00:00 NR -12.2645 55.2350 main 577 564 _____P________ -1 -12.2645 55.2350 99 3 224
1880001S08060 1880 1 SI MM NOT_NAMED 1880-01-06 03:00:00 NR -12.3800 55.1197 main 564 550 _____P________ -1 -12.3800 55.1197 99 3 224
1880001S08060 1880 1 SI MM NOT_NAMED 1880-01-06 06:00:00 NR -12.5000 55.0000 reunion main 550 537 _____O________ -1 -12.5000 55.0000 99 9.90000 3 224
1880001S08060 1880 1 SI MM NOT_NAMED 1880-01-06 09:00:00 NR -12.6050 54.8979 main 537 523 _____P________ -1 -12.6050 54.8979 99 3 224
1880001S08060 1880 1 SI MM NOT_NAMED 1880-01-06 12:00:00 NR -12.7113 54.7949 main 523 510 _____P________ -1 -12.7113 54.7949 99 3 223
1880001S08060 1880 1 SI MM NOT_NAMED 1880-01-06 15:00:00 NR -12.8231 54.6864 main 510 497 _____P________ -1 -12.8231 54.6864 99 3 224
1880001S08060 1880 1 SI MM NOT_NAMED 1880-01-06 18:00:00 NR -12.9441 54.5677 main 497 471 _____P________ -1 -12.9441 54.5677 99 4 224
1880001S08060 1880 1 SI MM NOT_NAMED 1880-01-06 21:00:00 NR -13.0784 54.4344 main 471 459 _____P________ -1 -13.0784 54.4344 99 4 224
1880001S08060 1880 1 SI MM NOT_NAMED 1880-01-07 00:00:00 NR -13.2298 54.2818 main 459 434 _____P________ -1 -13.2298 54.2818 99 5 225
1880001S08060 1880 1 SI MM NOT_NAMED 1880-01-07 03:00:00 NR -13.4024 54.1052 main 434 407 _____P________ -1 -13.4024 54.1052 99 5 225
1880001S08060 1880 1 SI MM NOT_NAMED 1880-01-07 06:00:00 NR -13.6000 53.9000 reunion main 407 368 _____O________ -1 -13.6000 53.9000 99 9.90000 7 226
1880001S08060 1880 1 SI MM NOT_NAMED 1880-01-07 09:00:00 NR -13.8612 53.6236 main 364 325 _____P________ -1 -13.8612 53.6236 99 8 226
1880001S08060 1880 1 SI MM NOT_NAMED 1880-01-07 12:00:00 NR -14.1511 53.3137 main 321 283 _____P________ -1 -14.1511 53.3137 99 9 226
1880001S08060 1880 1 SI MM NOT_NAMED 1880-01-07 15:00:00 NR -14.4592 52.9818 main 280 240 _____P________ -1 -14.4592 52.9818 99 9 226
1880001S08060 1880 1 SI MM NOT_NAMED 1880-01-07 18:00:00 NR -14.7747 52.6394 main 230 193 _____P________ -1 -14.7747 52.6394 99 9 226
1880001S08060 1880 1 SI MM NOT_NAMED 1880-01-07 21:00:00 NR -15.0871 52.2981 main 193 160 _____P________ -1 -15.0871 52.2981 99 9 227
1880001S08060 1880 1 SI MM NOT_NAMED 1880-01-08 00:00:00 NR -15.3857 51.9698 main 160 130 _____P________ -1 -15.3857 51.9698 99 8 227
1880001S08060 1880 1 SI MM NOT_NAMED 1880-01-08 03:00:00 NR -15.6601 51.6665 main 132 111 _____P________ -1 -15.6601 51.6665 99 8 227
1880001S08060 1880 1 SI MM NOT_NAMED 1880-01-08 06:00:00 NR -15.9000 51.4000 reunion main 111 96 _____O________ -1 -15.9000 51.4000 99 9.90000 6 227
1880001S08060 1880 1 SI MM NOT_NAMED 1880-01-08 09:00:00 NR -16.0976 51.1795 main 101 87 _____P________ -1 -16.0976 51.1795 99 5 227
1880001S08060 1880 1 SI MM NOT_NAMED 1880-01-08 12:00:00 NR -16.2561 51.0021 main 91 81 _____P________ -1 -16.2561 51.0021 99 4 227
1880001S08060 1880 1 SI MM NOT_NAMED 1880-01-08 15:00:00 NR -16.3811 50.8617 main 87 78 _____P________ -1 -16.3811 50.8617 99 3 227
1880001S08060 1880 1 SI MM NOT_NAMED 1880-01-08 18:00:00 NR -16.4782 50.7522 main 85 77 _____P________ -1 -16.4782 50.7522 99 3 227
1880001S08060 1880 1 SI MM NOT_NAMED 1880-01-08 21:00:00 NR -16.5531 50.6674 main 85 79 _____P________ -1 -16.5531 50.6674 99 2 227
1880001S08060 1880 1 SI MM NOT_NAMED 1880-01-09 00:00:00 NR -16.6113 50.6013 main 79 79 _____P________ -1 -16.6113 50.6013 99 2 227
1880001S08060 1880 1 SI MM NOT_NAMED 1880-01-09 03:00:00 NR -16.6584 50.5475 main 75 75 _____P________ -1 -16.6584 50.5475 99 1 227
1880001S08060 1880 1 SI MM NOT_NAMED 1880-01-09 06:00:00 NR -16.7000 50.5000 reunion main 75 _____O________ -1 -16.7000 50.5000 99 9.90000 1 222

IBTrACS Databaseについて

本データベースは、米国NOAAが公開する1842年以降の世界の熱帯低気圧のベストトラックデータアーカイブInternational Best Track Archive for Climate Stewardship (IBTrACS)を、ウェブで閲覧しやすい形式に変換したものです。

最終更新日:2021-12-03